Time;durP1;ratioP1;P1;durP2;ratioP2;P2;SDS_P1;SDS_P2;PMS_P1;PMS_P2;Temp;Humidity;BMP_temperature;BMP_pressure;BME280_temperature;BME280_humidity;BME280_pressure;Samples;Min_cycle;Max_cycle;Signal;HPM_P1;HPM_P2
2022/03/18 00:00:56;;;;;;;14.73;9.15;;;3.80;99.90;;;;;;6209402;23;20043;-76
2022/03/18 00:03:22;;;;;;;16.45;9.38;;;3.90;99.90;;;;;;6212827;23;20394;-76
2022/03/18 00:05:48;;;;;;;17.13;9.73;;;3.90;99.90;;;;;;6209697;23;20024;-77
2022/03/18 00:08:14;;;;;;;15.30;8.52;;;3.90;99.90;;;;;;6212033;23;20044;-77
2022/03/18 00:10:40;;;;;;;16.23;8.38;;;3.90;99.90;;;;;;6209466;23;20016;-76
2022/03/18 00:13:05;;;;;;;15.50;8.65;;;3.90;99.90;;;;;;6209835;23;20116;-77
2022/03/18 00:15:32;;;;;;;16.48;8.48;;;3.90;99.90;;;;;;6210945;23;20147;-76
2022/03/18 00:17:57;;;;;;;15.43;8.13;;;3.90;99.90;;;;;;6211383;23;20020;-76
2022/03/18 00:20:24;;;;;;;14.30;8.50;;;3.90;99.90;;;;;;6212532;23;20020;-76
2022/03/18 00:22:50;;;;;;;19.50;8.47;;;3.90;99.90;;;;;;6208334;23;20511;-77
2022/03/18 00:25:17;;;;;;;16.23;8.05;;;3.90;99.90;;;;;;6212807;23;20247;-77
2022/03/18 00:27:44;;;;;;;15.98;7.95;;;3.90;99.90;;;;;;6211347;23;20087;-77
2022/03/18 00:30:14;;;;;;;16.40;7.70;;;3.90;99.90;;;;;;6210594;23;20021;-77
2022/03/18 00:32:42;;;;;;;14.60;6.70;;;3.90;99.90;;;;;;6210495;23;20240;-76
2022/03/18 00:35:10;;;;;;;12.05;6.90;;;3.90;99.90;;;;;;6210472;23;20025;-76
2022/03/18 00:37:37;;;;;;;12.93;7.10;;;3.90;99.90;;;;;;6210200;23;20024;-77
2022/03/18 00:40:04;;;;;;;12.77;7.05;;;3.80;99.90;;;;;;6210988;23;20340;-77
2022/03/18 00:42:33;;;;;;;15.05;6.93;;;3.80;99.90;;;;;;6211205;23;20008;-76
2022/03/18 00:45:00;;;;;;;15.90;6.63;;;3.80;99.90;;;;;;6208059;23;20017;-76
2022/03/18 00:52:54;;;;;;;13.45;6.45;;;3.60;99.90;;;;;;6208691;23;20020;-77
2022/03/18 00:55:20;;;;;;;13.32;6.70;;;3.60;99.90;;;;;;6210119;23;20031;-76
2022/03/18 00:57:46;;;;;;;13.02;6.53;;;3.60;99.90;;;;;;6209723;23;20023;-77
2022/03/18 01:00:12;;;;;;;12.63;6.22;;;3.60;99.90;;;;;;6210993;23;20027;-76
2022/03/18 01:02:38;;;;;;;11.20;6.45;;;3.60;99.90;;;;;;6208677;23;20020;-77
2022/03/18 01:05:04;;;;;;;13.75;6.70;;;3.60;99.90;;;;;;6181158;23;20028;-76
2022/03/18 01:07:30;;;;;;;11.90;6.45;;;3.50;99.90;;;;;;6209586;23;20463;-77
2022/03/18 01:09:56;;;;;;;12.05;6.53;;;3.50;99.90;;;;;;6182223;23;20020;-75
2022/03/18 01:12:22;;;;;;;13.38;6.10;;;3.40;99.90;;;;;;6209777;23;20062;-75
2022/03/18 01:14:48;;;;;;;17.10;7.18;;;3.40;99.90;;;;;;6208669;23;20375;-76
2022/03/18 01:17:17;;;;;;;13.23;6.97;;;3.40;99.90;;;;;;6211152;23;20019;-76
2022/03/18 01:19:43;;;;;;;16.50;6.80;;;3.40;99.90;;;;;;6209994;23;20020;-76
2022/03/18 01:22:09;;;;;;;12.63;6.13;;;3.40;99.90;;;;;;6183041;23;20025;-76
2022/03/18 01:24:36;;;;;;;15.80;7.50;;;3.40;99.90;;;;;;6183000;23;20584;-76
2022/03/18 01:27:03;;;;;;;14.00;6.45;;;3.30;99.90;;;;;;6210365;23;20016;-76
2022/03/18 01:29:28;;;;;;;14.43;6.00;;;3.30;99.90;;;;;;6210835;23;20022;-76
2022/03/18 01:31:54;;;;;;;12.77;5.90;;;3.30;99.90;;;;;;6209841;23;20021;-76
2022/03/18 01:34:20;;;;;;;14.52;6.22;;;3.30;99.90;;;;;;6210489;23;20059;-76
2022/03/18 01:36:45;;;;;;;12.25;6.80;;;3.30;99.90;;;;;;6211216;23;20017;-76
2022/03/18 01:39:12;;;;;;;10.98;6.80;;;3.20;99.90;;;;;;6210790;23;20013;-76
2022/03/18 01:41:39;;;;;;;11.13;5.88;;;3.20;99.90;;;;;;6209345;23;20020;-76
2022/03/18 01:44:10;;;;;;;17.42;6.60;;;3.20;99.90;;;;;;6209621;23;20020;-76
2022/03/18 01:46:37;;;;;;;12.10;6.25;;;3.10;99.90;;;;;;6183578;23;20067;-76
2022/03/18 01:49:07;;;;;;;14.02;7.40;;;3.10;99.90;;;;;;6210838;23;20032;-76
2022/03/18 01:51:34;;;;;;;13.02;7.18;;;3.00;99.90;;;;;;6211316;23;20008;-76
2022/03/18 01:56:45;;;;;;;13.60;6.60;;;3.20;99.90;;;;;;6209598;23;20437;-76
2022/03/18 01:59:13;;;;;;;12.68;7.50;;;3.20;99.90;;;;;;6208195;23;20028;-75
2022/03/18 02:01:40;;;;;;;12.40;6.75;;;3.20;99.90;;;;;;6210806;23;20028;-76
2022/03/18 02:04:06;;;;;;;12.77;7.55;;;3.20;99.90;;;;;;6209761;23;20506;-76
2022/03/18 02:06:32;;;;;;;12.68;7.50;;;3.30;99.90;;;;;;6182669;23;20044;-75
2022/03/18 02:08:58;;;;;;;12.35;6.15;;;3.30;99.90;;;;;;6211982;23;20162;-76
2022/03/18 02:11:25;;;;;;;13.10;6.80;;;3.30;99.90;;;;;;6212822;23;20457;-76
2022/03/18 02:13:52;;;;;;;20.38;7.93;;;3.20;99.90;;;;;;6211888;23;20013;-76
2022/03/18 02:16:18;;;;;;;12.98;7.03;;;3.20;99.90;;;;;;6184609;23;20641;-76
2022/03/18 02:18:44;;;;;;;15.77;7.90;;;3.20;99.90;;;;;;6211407;23;20444;-76
2022/03/18 02:21:13;;;;;;;19.45;8.20;;;3.30;99.90;;;;;;6184829;23;20067;-76
2022/03/18 02:23:39;;;;;;;12.93;7.50;;;3.40;99.90;;;;;;6211268;23;20016;-76
2022/03/18 02:26:05;;;;;;;16.55;7.50;;;3.40;99.90;;;;;;6183215;23;20042;-76
2022/03/18 02:28:31;;;;;;;16.77;7.25;;;3.40;99.90;;;;;;6210765;23;20032;-75
2022/03/18 02:30:57;;;;;;;11.50;7.80;;;3.30;99.90;;;;;;6209803;23;20017;-77
2022/03/18 02:33:22;;;;;;;16.02;7.70;;;3.30;99.90;;;;;;6211104;23;20044;-77
2022/03/18 02:35:53;;;;;;;14.30;7.72;;;3.30;99.90;;;;;;6211137;23;20089;-76
2022/03/18 02:38:19;;;;;;;15.68;7.65;;;3.30;99.90;;;;;;6211018;23;20012;-77
2022/03/18 02:40:45;;;;;;;13.50;7.60;;;3.30;99.90;;;;;;6210046;23;20371;-77
2022/03/18 02:43:11;;;;;;;16.20;7.63;;;3.20;99.90;;;;;;6210346;23;20025;-77
2022/03/18 02:45:37;;;;;;;16.50;8.32;;;3.20;99.90;;;;;;6184162;23;20063;-76
2022/03/18 02:48:03;;;;;;;16.70;7.95;;;3.20;99.90;;;;;;6210750;23;20024;-76
2022/03/18 02:50:28;;;;;;;13.48;6.95;;;3.20;99.90;;;;;;6210476;23;20344;-77
2022/03/18 02:52:54;;;;;;;16.77;7.85;;;3.10;99.90;;;;;;6209869;23;20024;-76
2022/03/18 02:55:21;;;;;;;17.38;7.85;;;3.20;99.90;;;;;;6211851;23;20027;-75
2022/03/18 02:57:47;;;;;;;15.10;7.85;;;3.20;99.90;;;;;;6208982;23;20495;-77
2022/03/18 03:00:13;;;;;;;14.90;7.55;;;3.10;99.90;;;;;;6211624;23;20021;-77
2022/03/18 03:02:38;;;;;;;13.85;6.80;;;3.00;99.90;;;;;;6210597;23;20104;-77
2022/03/18 03:07:59;;;;;;;12.98;7.38;;;3.00;99.90;;;;;;6210749;23;20051;-77
2022/03/18 03:10:25;;;;;;;15.25;7.22;;;3.00;99.90;;;;;;6210299;23;20340;-76
2022/03/18 03:12:51;;;;;;;14.02;7.43;;;2.90;99.90;;;;;;6208123;23;20027;-76
2022/03/18 03:15:17;;;;;;;13.75;6.93;;;2.80;99.90;;;;;;6211489;23;20021;-76
2022/03/18 03:17:43;;;;;;;13.45;7.45;;;2.80;99.90;;;;;;6209806;23;20087;-77
2022/03/18 03:20:10;;;;;;;12.70;6.68;;;2.80;99.90;;;;;;6210397;23;20051;-77
2022/03/18 03:22:35;;;;;;;13.48;7.50;;;2.80;99.90;;;;;;6210432;23;20024;-76
2022/03/18 03:25:01;;;;;;;12.43;6.88;;;2.80;99.90;;;;;;6209661;23;20501;-76
2022/03/18 03:27:31;;;;;;;13.85;6.43;;;2.80;99.90;;;;;;6209953;23;20044;-76
2022/03/18 03:30:04;;;;;;;11.10;6.70;;;2.70;99.90;;;;;;6210643;23;20017;-76
2022/03/18 03:32:30;;;;;;;13.00;7.03;;;2.70;99.90;;;;;;6210154;23;20092;-77
2022/03/18 03:34:57;;;;;;;10.85;6.65;;;2.70;99.90;;;;;;6183842;23;20420;-77
2022/03/18 03:37:27;;;;;;;11.82;6.63;;;2.70;99.90;;;;;;6210833;23;20100;-76
2022/03/18 03:39:53;;;;;;;14.18;7.22;;;2.70;99.90;;;;;;6209129;23;20045;-76
2022/03/18 03:42:19;;;;;;;15.20;7.47;;;2.70;99.90;;;;;;6183875;23;20494;-76
2022/03/18 03:44:45;;;;;;;15.88;7.30;;;2.70;99.90;;;;;;6214206;23;20055;-77
2022/03/18 03:47:12;;;;;;;18.60;8.10;;;2.70;99.90;;;;;;6183995;23;20058;-76
2022/03/18 03:49:38;;;;;;;12.95;7.65;;;2.70;99.90;;;;;;6210666;23;20105;-76
2022/03/18 03:52:04;;;;;;;18.13;7.75;;;2.60;99.90;;;;;;6210755;23;20008;-76
2022/03/18 03:54:29;;;;;;;13.50;7.18;;;2.70;99.90;;;;;;6209943;23;20020;-75
2022/03/18 03:56:55;;;;;;;15.93;7.82;;;2.70;99.90;;;;;;6210082;23;20017;-74
2022/03/18 03:59:22;;;;;;;14.95;7.15;;;2.70;99.90;;;;;;6211284;23;20040;-74
2022/03/18 04:01:48;;;;;;;13.73;7.63;;;2.60;99.90;;;;;;6209302;23;20063;-75
2022/03/18 04:04:13;;;;;;;11.90;7.38;;;2.70;99.90;;;;;;6210953;23;20336;-75
2022/03/18 04:06:39;;;;;;;10.90;5.57;;;2.70;99.90;;;;;;6210130;23;20350;-75
2022/03/18 04:09:05;;;;;;;13.00;6.65;;;2.60;99.90;;;;;;6209459;23;20028;-75
2022/03/18 04:11:30;;;;;;;11.40;7.07;;;2.60;99.90;;;;;;6210607;23;20015;-75
2022/03/18 04:13:56;;;;;;;12.73;7.20;;;2.60;99.90;;;;;;6210013;23;20025;-74
2022/03/18 04:16:22;;;;;;;12.52;6.75;;;2.60;99.90;;;;;;6210045;23;20091;-74
2022/03/18 04:18:48;;;;;;;14.23;7.40;;;2.60;99.90;;;;;;6208175;23;20393;-75
2022/03/18 04:21:14;;;;;;;12.93;7.57;;;2.60;99.90;;;;;;6183906;23;20052;-74
2022/03/18 04:23:41;;;;;;;16.27;8.35;;;2.50;99.90;;;;;;6180583;23;20036;-75
2022/03/18 04:26:06;;;;;;;15.43;7.50;;;2.50;99.90;;;;;;6183323;23;20024;-75
2022/03/18 04:28:32;;;;;;;13.50;7.93;;;2.60;99.90;;;;;;6211552;23;20364;-75
2022/03/18 04:30:58;;;;;;;18.52;8.30;;;2.60;99.90;;;;;;6209394;23;20103;-75
2022/03/18 04:33:23;;;;;;;18.17;8.43;;;2.50;99.90;;;;;;6210546;23;20020;-75
2022/03/18 04:35:49;;;;;;;12.05;7.47;;;2.60;99.90;;;;;;6182654;23;20012;-75
2022/03/18 04:38:14;;;;;;;14.48;8.27;;;2.50;99.90;;;;;;6211169;23;20023;-75
2022/03/18 04:40:40;;;;;;;14.80;7.95;;;2.50;99.90;;;;;;6211289;23;20017;-75
2022/03/18 04:43:06;;;;;;;15.30;8.65;;;2.40;99.90;;;;;;6182394;23;20024;-75
2022/03/18 04:45:31;;;;;;;20.67;8.15;;;2.40;99.90;;;;;;6211011;23;20020;-75
2022/03/18 04:47:57;;;;;;;13.63;8.05;;;2.40;99.90;;;;;;6210498;23;20436;-75
2022/03/18 04:50:23;;;;;;;13.52;7.53;;;2.50;99.90;;;;;;6182813;23;20024;-75
2022/03/18 04:52:48;;;;;;;13.00;6.78;;;2.40;99.90;;;;;;6209911;23;20379;-76
2022/03/18 04:55:14;;;;;;;12.65;7.15;;;2.30;99.90;;;;;;6211189;23;20309;-75
2022/03/18 04:57:40;;;;;;;14.65;8.35;;;2.30;99.90;;;;;;6209984;23;20364;-75
2022/03/18 05:00:07;;;;;;;15.43;8.40;;;2.30;99.90;;;;;;6210060;23;20028;-75
2022/03/18 05:02:35;;;;;;;14.57;8.85;;;2.30;99.90;;;;;;6210995;23;20012;-75
2022/03/18 05:05:02;;;;;;;16.75;9.40;;;2.30;99.90;;;;;;6209772;23;20016;-75
2022/03/18 05:07:28;;;;;;;16.60;10.23;;;2.30;99.90;;;;;;6210718;23;20087;-74
2022/03/18 05:09:54;;;;;;;17.15;10.73;;;2.30;99.90;;;;;;6183476;23;20034;-75
2022/03/18 05:12:20;;;;;;;19.80;10.50;;;2.30;99.90;;;;;;6210159;23;20013;-75
2022/03/18 05:14:46;;;;;;;19.60;11.98;;;2.20;99.90;;;;;;6209924;23;20344;-76
2022/03/18 05:17:12;;;;;;;14.45;9.32;;;2.20;99.90;;;;;;6210809;23;20013;-75
2022/03/18 05:19:38;;;;;;;15.18;9.40;;;2.20;99.90;;;;;;6210071;23;20021;-76
2022/03/18 05:22:06;;;;;;;12.13;8.68;;;2.20;99.90;;;;;;6208964;23;20448;-75
2022/03/18 05:24:31;;;;;;;17.23;9.88;;;2.20;99.90;;;;;;6210688;23;20101;-76
2022/03/18 05:26:58;;;;;;;18.67;10.63;;;2.20;99.90;;;;;;6209699;23;20050;-75
2022/03/18 05:29:25;;;;;;;16.73;10.07;;;2.20;99.90;;;;;;6210839;23;20020;-75
2022/03/18 05:31:51;;;;;;;19.85;10.00;;;2.10;99.90;;;;;;6210212;23;20013;-74
2022/03/18 05:34:17;;;;;;;32.15;14.13;;;2.10;99.90;;;;;;6210281;23;20507;-75
2022/03/18 05:36:44;;;;;;;21.25;13.15;;;2.10;99.90;;;;;;6213045;23;20095;-75
2022/03/18 05:39:10;;;;;;;21.23;12.13;;;2.10;99.90;;;;;;6209690;23;20051;-74
2022/03/18 05:41:37;;;;;;;21.50;13.20;;;2.10;99.90;;;;;;6211150;23;20063;-75
2022/03/18 05:44:03;;;;;;;23.15;13.10;;;2.10;99.90;;;;;;6211620;23;20412;-75
2022/03/18 05:46:29;;;;;;;18.00;11.52;;;2.10;99.90;;;;;;6184920;23;20016;-75
2022/03/18 05:48:55;;;;;;;22.45;11.82;;;2.10;99.90;;;;;;6212042;23;20027;-74
2022/03/18 05:51:20;;;;;;;19.42;10.35;;;2.20;99.90;;;;;;6212397;23;20013;-74
2022/03/18 05:53:46;;;;;;;20.40;10.88;;;2.20;99.90;;;;;;6210778;23;20043;-75
2022/03/18 05:58:56;;;;;;;18.92;10.68;;;2.40;99.90;;;;;;6211612;23;20052;-74
2022/03/18 06:01:22;;;;;;;18.77;9.75;;;2.50;99.90;;;;;;6184719;23;20017;-74
2022/03/18 06:03:49;;;;;;;21.15;10.10;;;2.50;99.90;;;;;;6211250;23;20020;-75
2022/03/18 06:06:15;;;;;;;22.40;10.40;;;2.60;99.90;;;;;;6212809;23;20103;-75
2022/03/18 06:14:08;;;;;;;19.55;9.63;;;2.70;99.90;;;;;;6211431;23;20330;-74
2022/03/18 06:16:36;;;;;;;17.30;10.05;;;2.70;99.90;;;;;;6212076;23;20019;-73
2022/03/18 06:19:01;;;;;;;19.27;11.00;;;2.80;99.90;;;;;;6211137;23;20027;-73
2022/03/18 06:21:27;;;;;;;18.73;10.52;;;2.80;99.90;;;;;;6211382;23;20558;-73
2022/03/18 06:23:53;;;;;;;26.15;11.55;;;2.90;99.90;;;;;;6211298;23;20043;-73
2022/03/18 06:26:19;;;;;;;23.65;12.70;;;2.90;99.90;;;;;;6212357;23;20016;-73
2022/03/18 06:28:45;;;;;;;22.75;12.95;;;3.00;99.90;;;;;;6210871;23;20028;-73
2022/03/18 06:31:10;;;;;;;19.60;12.77;;;3.10;99.90;;;;;;6212049;23;20020;-73
2022/03/18 06:33:43;;;;;;;26.27;14.15;;;3.10;99.90;;;;;;6212127;23;20016;-73
2022/03/18 06:36:12;;;;;;;25.10;13.00;;;3.20;99.90;;;;;;6210995;23;20036;-75
2022/03/18 06:38:38;;;;;;;27.38;13.98;;;3.30;99.90;;;;;;6185789;23;20020;-74
2022/03/18 06:41:04;;;;;;;26.60;14.10;;;3.30;99.90;;;;;;6210883;23;20048;-75
2022/03/18 06:43:30;;;;;;;28.23;13.88;;;3.30;99.90;;;;;;6181697;23;20020;-75
2022/03/18 06:45:56;;;;;;;18.48;11.65;;;3.40;99.90;;;;;;6211121;23;20337;-76
2022/03/18 06:48:21;;;;;;;23.00;12.25;;;3.50;99.90;;;;;;6184260;23;20032;-76
2022/03/18 06:50:47;;;;;;;20.08;12.35;;;3.60;99.90;;;;;;6210162;23;20471;-76
2022/03/18 06:53:13;;;;;;;26.50;14.10;;;3.70;99.90;;;;;;6211049;23;20016;-76
2022/03/18 06:55:41;;;;;;;33.10;16.95;;;3.70;99.90;;;;;;6211656;23;20016;-75
2022/03/18 06:58:07;;;;;;;30.85;17.90;;;3.80;99.90;;;;;;6183483;23;20021;-75
2022/03/18 07:00:35;;;;;;;52.67;34.05;;;3.90;99.90;;;;;;6183832;23;20021;-76
2022/03/18 07:03:01;;;;;;;43.85;29.50;;;4.00;99.90;;;;;;6210618;23;20475;-77
2022/03/18 07:05:27;;;;;;;28.20;17.05;;;4.10;99.90;;;;;;6210126;23;20021;-76
2022/03/18 07:07:53;;;;;;;30.25;16.30;;;4.20;99.90;;;;;;6210932;23;20012;-77
2022/03/18 07:10:18;;;;;;;32.70;18.67;;;4.30;99.90;;;;;;6210219;23;20082;-76
2022/03/18 07:12:44;;;;;;;35.28;24.05;;;4.40;99.90;;;;;;6182762;23;20013;-76
2022/03/18 07:15:10;;;;;;;53.33;29.02;;;4.40;99.90;;;;;;6211230;23;20020;-77
2022/03/18 07:20:22;;;;;;;77.45;55.42;;;4.60;99.90;;;;;;6210804;23;20024;-76
2022/03/18 07:22:59;;;;;;;83.07;58.67;;;4.70;99.90;;;;;;6210867;23;20087;-77
2022/03/18 07:25:25;;;;;;;69.97;50.05;;;4.80;99.90;;;;;;6211194;23;20016;-77
2022/03/18 07:27:50;;;;;;;66.78;43.45;;;4.80;99.90;;;;;;6213223;23;20020;-77
2022/03/18 07:30:16;;;;;;;73.90;49.35;;;4.80;99.90;;;;;;6210797;23;20016;-77
2022/03/18 07:32:41;;;;;;;66.47;47.17;;;4.90;99.90;;;;;;6209058;23;20048;-77
2022/03/18 07:35:08;;;;;;;75.93;49.50;;;5.00;99.90;;;;;;6210288;23;20016;-76
2022/03/18 07:37:33;;;;;;;75.28;56.25;;;5.10;99.90;;;;;;6211417;23;20493;-77
2022/03/18 07:39:59;;;;;;;68.28;51.00;;;5.20;99.90;;;;;;6209592;23;20047;-77
2022/03/18 07:42:24;;;;;;;74.93;53.28;;;5.30;99.90;;;;;;6209883;23;20087;-76
2022/03/18 07:44:50;;;;;;;77.65;54.35;;;5.30;99.90;;;;;;6209405;23;20047;-76
2022/03/18 07:47:16;;;;;;;72.80;49.72;;;5.40;99.90;;;;;;6209890;23;20020;-77
2022/03/18 07:49:41;;;;;;;59.20;40.88;;;5.50;99.90;;;;;;6210820;23;20013;-77
2022/03/18 07:52:07;;;;;;;56.83;38.00;;;5.50;99.90;;;;;;6210458;23;20013;-76
2022/03/18 07:54:33;;;;;;;75.45;50.97;;;5.60;99.90;;;;;;6209529;23;20013;-76
2022/03/18 07:56:59;;;;;;;58.50;40.53;;;5.70;99.90;;;;;;6210218;23;20020;-77
2022/03/18 07:59:24;;;;;;;49.60;34.53;;;5.80;99.90;;;;;;6209963;23;20016;-76
2022/03/18 08:01:50;;;;;;;37.30;25.45;;;5.80;99.90;;;;;;6209244;23;20020;-76
2022/03/18 08:04:16;;;;;;;27.13;19.35;;;5.90;99.90;;;;;;6183778;23;20016;-76
2022/03/18 08:06:41;;;;;;;28.67;16.48;;;6.00;99.90;;;;;;6210043;23;20012;-76
2022/03/18 08:09:07;;;;;;;19.73;11.80;;;6.10;99.90;;;;;;6209731;23;20652;-75
2022/03/18 08:11:33;;;;;;;21.27;10.05;;;6.10;99.90;;;;;;6183990;23;20016;-75
2022/03/18 08:13:59;;;;;;;16.83;9.27;;;6.20;99.90;;;;;;6208603;23;20460;-78
2022/03/18 08:16:26;;;;;;;16.35;10.38;;;6.30;99.90;;;;;;6211669;23;20058;-77
2022/03/18 08:18:56;;;;;;;19.88;9.98;;;6.40;99.90;;;;;;6211992;23;20020;-76
2022/03/18 08:21:23;;;;;;;18.58;10.20;;;6.40;99.90;;;;;;6211595;23;20013;-76
2022/03/18 08:23:48;;;;;;;15.60;9.35;;;6.50;99.90;;;;;;6212160;23;20348;-76
2022/03/18 08:26:14;;;;;;;16.00;9.13;;;6.60;99.90;;;;;;6212714;23;20017;-76
2022/03/18 08:28:39;;;;;;;18.13;10.02;;;6.70;99.90;;;;;;6211814;23;20028;-75
2022/03/18 08:31:05;;;;;;;16.95;9.90;;;6.70;99.90;;;;;;6185085;23;20042;-77
2022/03/18 08:33:32;;;;;;;15.38;10.05;;;6.80;99.90;;;;;;6211924;23;20020;-75
2022/03/18 08:35:58;;;;;;;17.65;11.20;;;6.90;99.90;;;;;;6209764;23;20078;-75
2022/03/18 08:38:23;;;;;;;20.10;11.27;;;6.90;99.90;;;;;;6212382;23;20017;-76
2022/03/18 08:40:49;;;;;;;19.80;11.57;;;7.00;99.90;;;;;;6211761;23;20100;-73
2022/03/18 08:43:14;;;;;;;17.38;10.65;;;7.10;99.90;;;;;;6211775;23;20020;-75
2022/03/18 08:45:40;;;;;;;21.88;12.88;;;7.20;99.90;;;;;;6212176;23;20079;-76
2022/03/18 08:48:07;;;;;;;18.48;12.55;;;7.20;99.90;;;;;;6212445;23;20490;-75
2022/03/18 08:50:33;;;;;;;17.98;12.27;;;7.30;99.90;;;;;;6211945;23;20009;-84
2022/03/18 08:52:58;;;;;;;18.60;11.45;;;7.40;99.90;;;;;;6212350;23;20440;-77
2022/03/18 08:55:25;;;;;;;17.48;11.57;;;7.50;99.90;;;;;;6213018;23;20364;-75
2022/03/18 08:57:51;;;;;;;20.02;12.63;;;7.60;99.90;;;;;;6184269;23;20067;-75
2022/03/18 09:00:18;;;;;;;19.10;11.80;;;7.60;99.90;;;;;;6185149;23;20020;-75
2022/03/18 09:02:45;;;;;;;20.92;12.82;;;7.70;99.90;;;;;;6211946;23;20015;-78
2022/03/18 09:05:11;;;;;;;19.98;13.05;;;7.70;99.90;;;;;;6183844;23;20024;-75
2022/03/18 09:07:38;;;;;;;20.17;12.68;;;7.80;99.90;;;;;;6211541;23;20031;-75
2022/03/18 09:10:05;;;;;;;22.85;13.27;;;7.80;99.90;;;;;;6210789;23;20009;-75
2022/03/18 09:12:31;;;;;;;21.17;12.67;;;7.90;99.90;;;;;;6212922;23;20016;-75
2022/03/18 09:14:58;;;;;;;19.98;13.57;;;8.00;99.90;;;;;;6211012;23;20393;-74
2022/03/18 09:17:23;;;;;;;21.27;13.70;;;8.10;99.90;;;;;;6186430;23;20107;-74
2022/03/18 09:19:49;;;;;;;20.75;13.52;;;8.20;99.90;;;;;;6216185;23;20021;-75
2022/03/18 09:22:16;;;;;;;24.83;13.82;;;8.30;99.90;;;;;;6187634;23;20017;-76
2022/03/18 09:24:43;;;;;;;21.85;14.43;;;8.30;99.90;;;;;;6213090;23;20445;-76
2022/03/18 09:27:09;;;;;;;25.02;14.48;;;8.40;99.90;;;;;;6214284;23;20471;-76
2022/03/18 09:29:36;;;;;;;26.47;15.33;;;8.50;99.90;;;;;;6187649;23;20023;-74
2022/03/18 09:32:02;;;;;;;26.23;15.68;;;8.60;99.90;;;;;;6213186;23;20013;-73
2022/03/18 09:34:28;;;;;;;24.75;15.70;;;8.60;99.90;;;;;;6214015;23;20187;-74
2022/03/18 09:36:56;;;;;;;24.80;16.55;;;8.80;99.90;;;;;;6213543;23;20075;-78
2022/03/18 09:39:24;;;;;;;24.45;15.38;;;8.80;99.90;;;;;;6213446;23;20096;-76
2022/03/18 09:41:51;;;;;;;25.42;15.63;;;8.90;99.90;;;;;;6212480;23;20023;-82
2022/03/18 09:44:16;;;;;;;26.27;16.20;;;9.00;99.90;;;;;;6213682;23;20021;-78
2022/03/18 09:46:47;;;;;;;22.90;15.38;;;9.10;99.90;;;;;;6213381;23;20013;-77
2022/03/18 09:49:18;;;;;;;24.13;15.82;;;9.20;99.90;;;;;;6214271;23;20071;-77
2022/03/18 09:51:45;;;;;;;25.23;15.63;;;9.20;99.90;;;;;;6213889;23;20336;-76
2022/03/18 09:54:12;;;;;;;25.25;16.35;;;9.30;99.90;;;;;;6213086;23;20017;-76
2022/03/18 09:56:43;;;;;;;24.88;16.70;;;9.40;99.90;;;;;;6214697;23;20017;-76
2022/03/18 09:59:10;;;;;;;27.23;15.95;;;9.50;99.90;;;;;;6214325;23;20021;-76
2022/03/18 10:01:36;;;;;;;27.10;16.05;;;9.60;99.90;;;;;;6213571;23;20052;-78
2022/03/18 10:04:07;;;;;;;27.13;16.52;;;9.70;99.90;;;;;;6212678;23;20067;-78
2022/03/18 10:06:38;;;;;;;28.40;16.52;;;9.70;99.90;;;;;;6213459;23;20017;-78
2022/03/18 10:09:07;;;;;;;25.20;15.73;;;9.80;99.90;;;;;;6186724;23;20021;-78
2022/03/18 10:11:37;;;;;;;26.45;16.30;;;9.90;99.90;;;;;;6214092;23;20130;-77
2022/03/18 10:14:08;;;;;;;23.33;16.90;;;10.00;99.90;;;;;;6211938;23;20495;-84
2022/03/18 10:16:50;;;;;;;28.58;16.20;;;10.10;99.90;;;;;;6187110;23;20180;-81
2022/03/18 10:19:18;;;;;;;28.52;16.30;;;10.20;99.90;;;;;;6214366;23;20071;-81
2022/03/18 10:21:55;;;;;;;22.98;15.50;;;10.30;99.90;;;;;;6212349;23;20015;-80
2022/03/18 10:24:27;;;;;;;28.25;16.95;;;10.40;99.90;;;;;;6213339;23;20059;-79
2022/03/18 10:27:13;;;;;;;24.77;15.30;;;10.50;99.90;;;;;;6213029;23;20044;-80
2022/03/18 10:29:53;;;;;;;29.77;17.00;;;10.60;99.90;;;;;;6211929;23;20364;-79
2022/03/18 10:32:21;;;;;;;23.48;15.35;;;10.70;99.90;;;;;;6213940;23;20016;-75
2022/03/18 10:37:54;;;;;;;32.05;16.75;;;10.80;99.90;;;;;;6212732;23;20280;-79
2022/03/18 10:40:36;;;;;;;24.73;16.48;;;10.80;99.90;;;;;;6213138;23;20448;-78
2022/03/18 10:43:05;;;;;;;25.83;16.42;;;10.90;99.90;;;;;;6209807;23;20146;-78
2022/03/18 10:45:31;;;;;;;21.48;15.93;;;10.90;99.90;;;;;;6213117;23;20099;-75
2022/03/18 10:48:11;;;;;;;20.65;14.50;;;11.00;99.90;;;;;;6213391;23;20390;-75
2022/03/18 10:50:40;;;;;;;22.83;14.65;;;11.10;99.90;;;;;;6212975;23;20016;-82
2022/03/18 10:53:08;;;;;;;27.95;14.80;;;11.10;99.90;;;;;;6211633;23;20012;-79
2022/03/18 10:55:42;;;;;;;21.55;14.00;;;11.30;99.90;;;;;;6184499;23;20024;-74
2022/03/18 10:58:17;;;;;;;20.77;14.13;;;11.30;99.90;;;;;;6184546;23;20512;-75
2022/03/18 11:00:45;;;;;;;22.63;14.60;;;11.40;99.90;;;;;;6213243;23;20032;-74
2022/03/18 11:03:13;;;;;;;21.30;13.15;;;11.40;99.90;;;;;;6212652;23;20028;-74
2022/03/18 11:05:40;;;;;;;21.55;14.40;;;11.40;99.90;;;;;;6213428;23;20106;-76
2022/03/18 11:08:11;;;;;;;20.27;13.05;;;11.50;99.90;;;;;;6216585;23;20008;-77
2022/03/18 11:13:29;;;;;;;33.15;13.75;;;11.70;99.90;;;;;;6213771;23;20027;-75
2022/03/18 11:15:56;;;;;;;25.42;12.40;;;11.80;99.90;;;;;;6213547;23;20017;-75
2022/03/18 11:18:28;;;;;;;24.52;12.45;;;11.80;99.90;;;;;;6212449;23;20019;-73
2022/03/18 11:20:56;;;;;;;17.25;11.95;;;11.90;99.90;;;;;;6213583;23;20021;-74
2022/03/18 11:23:23;;;;;;;17.60;11.85;;;12.00;99.90;;;;;;6213845;23;20008;-74
2022/03/18 11:25:53;;;;;;;20.38;11.25;;;12.00;99.90;;;;;;6210423;23;20591;-74
2022/03/18 11:28:20;;;;;;;16.02;8.63;;;12.10;99.90;;;;;;6213570;23;20472;-74
2022/03/18 11:31:00;;;;;;;14.57;8.73;;;12.20;99.90;;;;;;6212413;23;20021;-85
2022/03/18 11:33:26;;;;;;;18.20;9.00;;;12.30;99.90;;;;;;6211476;23;20012;-75
2022/03/18 11:35:52;;;;;;;19.70;9.65;;;12.30;99.90;;;;;;6211674;23;20475;-75
2022/03/18 11:38:25;;;;;;;17.00;9.10;;;12.30;99.90;;;;;;6212004;23;20016;-76
2022/03/18 11:40:57;;;;;;;17.27;9.98;;;12.30;99.90;;;;;;6211670;23;20579;-76
2022/03/18 11:43:33;;;;;;;14.30;8.70;;;12.40;99.90;;;;;;6213049;23;20080;-75
2022/03/18 11:46:16;;;;;;;13.95;8.65;;;12.40;99.90;;;;;;6211136;23;20029;-80
2022/03/18 11:48:54;;;;;;;15.23;8.13;;;12.50;99.90;;;;;;6213385;23;20690;-78
2022/03/18 11:51:27;;;;;;;14.73;8.80;;;12.60;99.90;;;;;;6184659;23;20017;-78
2022/03/18 11:53:56;;;;;;;16.52;8.93;;;12.70;99.90;;;;;;6210495;23;20074;-74
2022/03/18 11:56:41;;;;;;;15.98;9.55;;;12.80;99.90;;;;;;6185275;23;20021;-84
2022/03/18 11:59:28;;;;;;;15.88;9.48;;;12.90;99.90;;;;;;6209374;23;20023;-74
2022/03/18 12:02:17;;;;;;;14.35;9.13;;;13.00;99.90;;;;;;6184132;23;20100;-74
2022/03/18 12:04:46;;;;;;;14.68;9.40;;;13.00;99.90;;;;;;6199435;23;20024;-75
2022/03/18 12:07:30;;;;;;;16.38;9.20;;;13.10;99.90;;;;;;6210711;23;20013;-76
2022/03/18 12:09:56;;;;;;;14.30;8.00;;;13.20;99.90;;;;;;6211277;23;20096;-76
2022/03/18 12:12:34;;;;;;;14.13;8.05;;;13.30;99.90;;;;;;6212643;23;20048;-76
2022/03/18 12:15:07;;;;;;;12.80;7.50;;;13.30;99.90;;;;;;6210876;23;20071;-76
2022/03/18 12:17:51;;;;;;;12.35;9.15;;;13.40;99.90;;;;;;6212461;23;20017;-76
2022/03/18 12:20:21;;;;;;;17.27;10.27;;;13.40;99.90;;;;;;6210272;23;20031;-79
2022/03/18 12:22:50;;;;;;;16.85;10.05;;;13.40;99.90;;;;;;6211378;23;20008;-73
2022/03/18 12:25:16;;;;;;;17.40;9.85;;;13.50;99.90;;;;;;6212583;23;20090;-73
2022/03/18 12:27:44;;;;;;;12.98;8.07;;;13.50;99.90;;;;;;6211422;23;20020;-76
2022/03/18 12:30:18;;;;;;;18.30;9.30;;;13.50;99.90;;;;;;6184561;23;20048;-76
2022/03/18 12:32:52;;;;;;;14.80;9.00;;;13.60;99.50;;;;;;6185954;23;20024;-77
2022/03/18 12:35:23;;;;;;;12.20;6.68;;;13.50;99.70;;;;;;6184798;23;20232;-76
2022/03/18 12:38:21;;;;;;;11.40;5.43;;;13.60;99.00;;;;;;6211706;23;20040;-76
2022/03/18 12:40:58;;;;;;;11.55;4.45;;;13.70;98.20;;;;;;6210713;23;20096;-76
2022/03/18 12:43:26;;;;;;;11.52;4.60;;;13.70;93.30;;;;;;6211950;23;20112;-73
2022/03/18 12:45:52;;;;;;;13.73;5.72;;;13.70;92.00;;;;;;6210198;23;20056;-81
2022/03/18 12:48:20;;;;;;;11.00;5.13;;;13.80;91.20;;;;;;6210526;23;20012;-76
2022/03/18 12:50:48;;;;;;;18.40;6.90;;;13.80;91.20;;;;;;6208791;23;20028;-76
2022/03/18 12:53:18;;;;;;;12.38;5.50;;;13.80;90.40;;;;;;6185286;23;20401;-75
2022/03/18 12:55:46;;;;;;;12.70;4.90;;;13.80;86.60;;;;;;6210488;23;20099;-75
2022/03/18 12:58:12;;;;;;;12.15;5.47;;;13.80;85.50;;;;;;6186641;23;20027;-75
2022/03/18 13:00:40;;;;;;;10.30;5.75;;;13.90;83.70;;;;;;6218846;23;20028;-74
2022/03/18 13:03:09;;;;;;;11.80;5.95;;;13.90;84.20;;;;;;6186362;23;20309;-75
2022/03/18 13:05:35;;;;;;;11.48;7.03;;;14.00;85.90;;;;;;6211255;23;20052;-75
2022/03/18 13:08:07;;;;;;;10.73;4.75;;;14.00;85.50;;;;;;6211121;23;20024;-76
2022/03/18 13:10:34;;;;;;;9.50;4.32;;;14.10;79.00;;;;;;6211337;23;20009;-76